Seymour Johnson AFB, North Carolina
Current Conditions -  °F | °C
As of 2:58 AM on Monday 24 Nov 2014 (Local Time) from KGSB Reporting Station
Broken Clouds Broken Clouds  
Wind Chill: 67°   Ceiling: 5500
Heat Index: 67°   Visibility: 10mi
Dew Point: 67°   Wind: 2mph
Humidity: 100%   Direction: 160°SSE
Pressure: 29.78"   Gusts: NA
Location:  35.3407°N, 77.9695°W
Report Text: KGSB 240758Z AUTO 16002KT 10SM SCT036 BKN055 19/19 A2978 RMK AO2 SLP087 T01940194 $
Loading
Personal Weather Stations






























Interactive Weather Map New forecast layout! Learn more

10-Day Weather Forecast

Advertisements
Track Severe Weather on mobile